createdAt,value
2023-04-26T00:00:11.482Z,100.00
2023-04-26T00:04:16.099Z,100.00
2023-04-26T00:08:19.297Z,100.00
2023-04-26T00:12:22.347Z,100.00
2023-04-26T00:16:25.499Z,100.00
2023-04-26T00:20:30.136Z,100.00
2023-04-26T00:24:33.436Z,100.00
2023-04-26T00:28:36.319Z,100.00
2023-04-26T00:32:39.516Z,100.00
2023-04-26T00:36:44.935Z,100.00
2023-04-26T00:40:47.862Z,100.00
2023-04-26T00:44:55.234Z,100.00
2023-04-26T00:48:58.616Z,100.00
2023-04-26T00:53:03.765Z,100.00
2023-04-26T00:57:07.259Z,100.00
2023-04-26T01:01:10.230Z,100.00
2023-04-26T01:05:13.576Z,100.00
2023-04-26T01:09:19.037Z,100.00
2023-04-26T01:13:22.073Z,100.00
2023-04-26T01:17:26.029Z,100.00
2023-04-26T01:21:28.980Z,100.00
2023-04-26T01:25:34.480Z,100.00
2023-04-26T01:29:37.710Z,100.00
2023-04-26T01:33:40.696Z,100.00
2023-04-26T01:37:43.640Z,100.00
2023-04-26T01:41:47.842Z,100.00
2023-04-26T01:45:50.925Z,100.00
2023-04-26T01:50:07.368Z,100.00
2023-04-26T01:54:10.232Z,100.00
2023-04-26T01:58:14.470Z,100.00
2023-04-26T02:02:18.126Z,100.00
2023-04-26T02:06:21.407Z,100.00
2023-04-26T02:10:24.307Z,100.00
2023-04-26T02:14:28.620Z,100.00
2023-04-26T02:18:31.504Z,100.00
2023-04-26T02:22:34.361Z,100.00
2023-04-26T02:26:37.320Z,100.00
2023-04-26T02:30:41.928Z,100.00
2023-04-26T02:34:45.641Z,100.00
2023-04-26T02:38:48.686Z,100.00
2023-04-26T02:42:51.927Z,100.00
2023-04-26T02:46:56.292Z,100.00
2023-04-26T02:50:59.320Z,100.00
2023-04-26T02:55:02.383Z,100.00
2023-04-26T02:59:05.337Z,100.00
2023-04-26T03:03:09.640Z,100.00
2023-04-26T03:07:12.662Z,100.00
2023-04-26T03:11:15.570Z,100.00
2023-04-26T03:15:18.679Z,100.00
2023-04-26T03:19:23.076Z,100.00
2023-04-26T03:23:26.491Z,100.00
2023-04-26T03:27:30.766Z,100.00
2023-04-26T03:31:33.967Z,100.00
2023-04-26T03:35:38.569Z,100.00
2023-04-26T03:39:41.771Z,100.00
2023-04-26T03:43:45.873Z,100.00
2023-04-26T03:47:48.812Z,100.00
2023-04-26T03:51:53.490Z,100.00
2023-04-26T03:55:56.633Z,100.00
2023-04-26T03:59:59.548Z,100.00
2023-04-26T04:04:02.942Z,100.00
2023-04-26T04:08:07.523Z,100.00
2023-04-26T04:12:11.676Z,100.00
2023-04-26T04:16:14.942Z,100.00
2023-04-26T04:20:18.985Z,100.00
2023-04-26T04:24:23.892Z,100.00
2023-04-26T04:28:28.310Z,100.00
2023-04-26T04:32:35.201Z,100.00
2023-04-26T04:36:40.873Z,100.00
2023-04-26T04:40:45.460Z,100.00
2023-04-26T04:44:50.199Z,100.00
2023-04-26T04:48:54.603Z,100.00
2023-04-26T04:52:57.975Z,100.00
2023-04-26T04:57:03.045Z,100.00
2023-04-26T05:01:07.541Z,100.00
2023-04-26T05:05:32.134Z,100.00
2023-04-26T05:09:35.156Z,100.00
2023-04-26T05:13:40.259Z,100.00
2023-04-26T05:17:43.750Z,100.00
2023-04-26T05:21:53.552Z,100.00
2023-04-26T05:25:56.644Z,100.00
2023-04-26T05:30:27.613Z,100.00
2023-04-26T05:34:52.079Z,100.00
2023-04-26T05:38:55.014Z,100.00
2023-04-26T05:42:58.058Z,100.00
2023-04-26T05:47:03.974Z,100.00
2023-04-26T05:51:07.408Z,100.00
2023-04-26T05:55:11.384Z,100.00
2023-04-26T05:59:14.417Z,100.00
2023-04-26T06:03:19.424Z,100.00
2023-04-26T06:07:22.649Z,100.00
2023-04-26T06:11:26.964Z,100.00
2023-04-26T06:15:31.822Z,100.00
2023-04-26T06:19:36.881Z,100.00
2023-04-26T06:23:39.819Z,100.00
2023-04-26T06:27:42.677Z,100.00
2023-04-26T06:31:46.164Z,100.00
2023-04-26T06:35:50.782Z,100.00
2023-04-26T06:39:54.816Z,100.00
2023-04-26T06:43:57.833Z,100.00
2023-04-26T06:48:07.213Z,100.00
2023-04-26T06:52:11.998Z,100.00
2023-04-26T06:56:15.385Z,100.00
2023-04-26T07:00:19.072Z,100.00
2023-04-26T07:04:22.055Z,100.00
2023-04-26T07:08:26.522Z,100.00
2023-04-26T07:12:29.436Z,100.00
2023-04-26T07:16:32.554Z,100.00
2023-04-26T07:20:36.186Z,100.00
2023-04-26T07:24:40.479Z,100.00
2023-04-26T07:28:43.592Z,100.00
2023-04-26T07:32:46.475Z,100.00
2023-04-26T07:36:49.498Z,100.00
2023-04-26T07:40:53.760Z,100.00
2023-04-26T07:44:56.631Z,100.00
2023-04-26T07:48:59.492Z,100.00
2023-04-26T07:53:02.379Z,100.00
2023-04-26T07:57:06.776Z,100.00
2023-04-26T08:01:11.789Z,100.00
2023-04-26T08:05:15.169Z,100.00
2023-04-26T08:09:18.626Z,100.00
2023-04-26T08:13:23.046Z,100.00
2023-04-26T08:17:25.951Z,100.00
2023-04-26T08:21:28.970Z,100.00
2023-04-26T08:25:34.864Z,100.00
2023-04-26T08:29:39.136Z,100.00
2023-04-26T08:33:42.005Z,100.00
2023-04-26T08:37:45.704Z,100.00
2023-04-26T08:41:51.220Z,100.00
2023-04-26T08:45:56.021Z,100.00
2023-04-26T08:49:59.846Z,100.00
2023-04-26T08:54:05.083Z,100.00
2023-04-26T08:58:10.133Z,100.00
2023-04-26T09:02:18.443Z,100.00
2023-04-26T09:06:21.745Z,100.00
2023-04-26T09:10:25.354Z,100.00
2023-04-26T09:14:28.641Z,100.00
2023-04-26T09:18:34.214Z,100.00
2023-04-26T09:22:38.967Z,100.00
2023-04-26T09:26:42.099Z,100.00
2023-04-26T09:30:45.096Z,100.00
2023-04-26T09:34:49.369Z,100.00
2023-04-26T09:38:52.405Z,100.00
2023-04-26T09:42:59.347Z,100.00
2023-04-26T09:47:03.325Z,100.00
2023-04-26T09:51:12.441Z,100.00
2023-04-26T09:55:34.636Z,100.00
2023-04-26T09:59:46.269Z,100.00
2023-04-26T10:03:49.483Z,100.00
2023-04-26T10:07:54.045Z,100.00
2023-04-26T10:11:57.285Z,100.00
2023-04-26T10:16:01.098Z,100.00
2023-04-26T10:20:06.038Z,100.00
2023-04-26T10:24:11.518Z,100.00
2023-04-26T10:28:14.435Z,100.00
2023-04-26T10:32:18.708Z,100.00
2023-04-26T10:36:22.353Z,100.00
2023-04-26T10:40:27.845Z,100.00
2023-04-26T10:44:41.659Z,100.00
2023-04-26T10:48:44.694Z,100.00
2023-04-26T10:53:08.848Z,100.00
2023-04-26T10:57:13.189Z,100.00
2023-04-26T11:01:17.630Z,100.00
2023-04-26T11:05:50.792Z,100.00
2023-04-26T11:09:53.709Z,100.00
2023-04-26T11:13:58.405Z,100.00
2023-04-26T11:18:03.466Z,100.00
2023-04-26T11:22:07.976Z,100.00
2023-04-26T11:26:10.995Z,100.00
2023-04-26T11:30:15.552Z,100.00
2023-04-26T11:34:18.718Z,100.00
2023-04-26T11:38:23.043Z,100.00
2023-04-26T11:42:26.744Z,100.00
2023-04-26T11:46:31.277Z,100.00
2023-04-26T11:50:35.785Z,100.00
2023-04-26T11:54:38.736Z,100.00
2023-04-26T11:58:41.634Z,100.00
2023-04-26T12:02:49.458Z,100.00
2023-04-26T12:06:52.812Z,100.00
2023-04-26T12:10:56.555Z,100.00
2023-04-26T12:14:59.530Z,100.00
2023-04-26T12:19:06.656Z,100.00
2023-04-26T12:23:10.257Z,100.00
2023-04-26T12:27:21.354Z,100.00
2023-04-26T12:31:24.239Z,100.00
2023-04-26T12:35:28.563Z,100.00
2023-04-26T12:39:31.522Z,100.00
2023-04-26T12:43:34.627Z,100.00
2023-04-26T12:47:37.615Z,100.00
2023-04-26T12:51:41.985Z,100.00
2023-04-26T12:55:45.321Z,100.00
2023-04-26T12:59:48.545Z,100.00
2023-04-26T13:03:51.718Z,100.00
2023-04-26T13:07:56.312Z,100.00
2023-04-26T13:11:59.446Z,100.00
2023-04-26T13:16:04.762Z,100.00
2023-04-26T13:20:08.677Z,98.03
2023-04-26T13:24:12.992Z,100.00
2023-04-26T13:28:16.608Z,100.00
2023-04-26T13:32:19.819Z,100.00
2023-04-26T13:36:22.886Z,91.88
2023-04-26T13:40:27.102Z,90.96
2023-04-26T13:44:30.053Z,84.46
2023-04-26T13:48:33.093Z,84.71
2023-04-26T13:52:36.385Z,100.00
2023-04-26T13:56:40.890Z,100.00
2023-04-26T14:00:43.824Z,100.00
2023-04-26T14:04:46.982Z,100.00
2023-04-26T14:08:49.986Z,100.00
2023-04-26T14:12:54.954Z,96.29
2023-04-26T14:16:57.867Z,94.19
2023-04-26T14:21:00.875Z,100.00
2023-04-26T14:25:04.241Z,100.00
2023-04-26T14:29:09.006Z,95.83
2023-04-26T14:33:11.900Z,100.00
2023-04-26T14:37:15.302Z,98.47
2023-04-26T14:41:18.821Z,96.66
2023-04-26T14:45:27.868Z,100.00
2023-04-26T14:49:36.590Z,100.00
2023-04-26T14:53:40.009Z,100.00
2023-04-26T14:57:43.179Z,100.00
2023-04-26T15:01:47.539Z,100.00
2023-04-26T15:05:50.814Z,95.94
2023-04-26T15:09:53.706Z,97.42
2023-04-26T15:13:56.623Z,100.00
2023-04-26T15:18:01.913Z,98.60
2023-04-26T15:22:05.863Z,91.23
2023-04-26T15:26:09.020Z,79.08
2023-04-26T15:30:12.240Z,92.73
2023-04-26T15:34:16.677Z,91.68
2023-04-26T15:38:19.695Z,98.30
2023-04-26T15:42:22.761Z,86.83
2023-04-26T15:46:25.800Z,93.43
2023-04-26T15:50:30.414Z,92.29
2023-04-26T15:54:33.421Z,83.64
2023-04-26T15:58:39.816Z,74.43
2023-04-26T16:02:45.055Z,71.59
2023-04-26T16:06:49.637Z,67.29
2023-04-26T16:10:52.649Z,70.34
2023-04-26T16:14:56.353Z,78.16
2023-04-26T16:18:59.272Z,82.20
2023-04-26T16:23:04.145Z,77.50
2023-04-26T16:27:07.026Z,75.34
2023-04-26T16:31:10.391Z,86.19
2023-04-26T16:35:14.415Z,88.89
2023-04-26T16:39:19.545Z,98.86
2023-04-26T16:43:22.473Z,100.00
2023-04-26T16:47:25.455Z,100.00
2023-04-26T16:51:28.813Z,97.82
2023-04-26T16:55:33.723Z,93.20
2023-04-26T16:59:36.638Z,95.78
2023-04-26T17:03:39.814Z,96.13
2023-04-26T17:07:42.950Z,100.00
2023-04-26T17:11:47.237Z,100.00
2023-04-26T17:15:50.206Z,100.00
2023-04-26T17:19:53.179Z,100.00
2023-04-26T17:23:56.086Z,100.00
2023-04-26T17:28:00.375Z,100.00
2023-04-26T17:32:03.690Z,100.00
2023-04-26T17:36:07.005Z,100.00
2023-04-26T17:40:10.677Z,100.00
2023-04-26T17:44:15.038Z,100.00
2023-04-26T17:48:18.723Z,100.00
2023-04-26T17:52:21.722Z,100.00
2023-04-26T17:56:25.401Z,100.00
2023-04-26T18:00:29.935Z,100.00
2023-04-26T18:04:33.676Z,100.00
2023-04-26T18:08:37.584Z,100.00
2023-04-26T18:12:40.756Z,100.00
2023-04-26T18:16:45.215Z,100.00
2023-04-26T18:20:48.142Z,100.00
2023-04-26T18:24:51.144Z,100.00
2023-04-26T18:28:54.975Z,100.00
2023-04-26T18:32:59.576Z,100.00
2023-04-26T18:37:02.845Z,100.00
2023-04-26T18:41:05.976Z,100.00
2023-04-26T18:45:09.639Z,100.00
2023-04-26T18:49:14.133Z,100.00
2023-04-26T18:53:17.571Z,100.00
2023-04-26T18:57:22.711Z,100.00
2023-04-26T19:01:27.198Z,100.00
2023-04-26T19:05:31.829Z,100.00
2023-04-26T19:09:50.553Z,100.00
2023-04-26T19:13:56.613Z,100.00
2023-04-26T19:17:59.642Z,100.00
2023-04-26T19:22:04.507Z,100.00
2023-04-26T19:26:09.281Z,100.00
2023-04-26T19:30:12.839Z,100.00
2023-04-26T19:34:16.386Z,100.00
2023-04-26T19:38:21.693Z,100.00
2023-04-26T19:42:24.781Z,100.00
2023-04-26T19:46:28.234Z,100.00
2023-04-26T19:50:32.583Z,100.00
2023-04-26T19:54:37.492Z,100.00
2023-04-26T19:58:40.812Z,100.00
2023-04-26T20:02:44.040Z,100.00
2023-04-26T20:06:47.177Z,100.00
2023-04-26T20:10:53.997Z,100.00
2023-04-26T20:14:57.010Z,100.00
2023-04-26T20:19:00.650Z,100.00
2023-04-26T20:23:04.530Z,100.00
2023-04-26T20:27:10.701Z,100.00
2023-04-26T20:31:15.202Z,100.00
2023-04-26T20:35:21.601Z,100.00
2023-04-26T20:39:24.668Z,100.00
2023-04-26T20:43:29.159Z,100.00
2023-04-26T20:47:33.525Z,100.00
2023-04-26T20:51:36.374Z,100.00
2023-04-26T20:55:40.416Z,100.00
2023-04-26T20:59:45.078Z,100.00
2023-04-26T21:03:48.445Z,100.00
2023-04-26T21:07:52.141Z,100.00
2023-04-26T21:11:55.163Z,100.00
2023-04-26T21:16:02.541Z,100.00
2023-04-26T21:20:05.841Z,100.00
2023-04-26T21:24:12.522Z,100.00
2023-04-26T21:28:15.497Z,100.00
2023-04-26T21:32:20.141Z,100.00
2023-04-26T21:36:23.108Z,100.00
2023-04-26T21:40:26.105Z,100.00
2023-04-26T21:44:29.125Z,100.00
2023-04-26T21:48:33.350Z,100.00
2023-04-26T21:52:37.634Z,100.00
2023-04-26T21:56:41.405Z,100.00
2023-04-26T22:00:44.317Z,100.00
2023-04-26T22:04:48.752Z,100.00
2023-04-26T22:08:51.774Z,100.00
2023-04-26T22:12:54.962Z,100.00
2023-04-26T22:16:57.995Z,100.00
2023-04-26T22:21:02.271Z,100.00
2023-04-26T22:25:05.507Z,100.00
2023-04-26T22:29:08.884Z,100.00
2023-04-26T22:33:12.382Z,100.00
2023-04-26T22:37:21.401Z,100.00
2023-04-26T22:41:24.850Z,100.00
2023-04-26T22:45:27.933Z,100.00
2023-04-26T22:49:30.963Z,100.00
2023-04-26T22:53:35.299Z,100.00
2023-04-26T22:57:38.420Z,100.00
2023-04-26T23:01:41.693Z,100.00
2023-04-26T23:05:45.598Z,100.00
2023-04-26T23:09:49.998Z,100.00
2023-04-26T23:13:54.460Z,100.00
2023-04-26T23:17:57.431Z,100.00
2023-04-26T23:22:00.323Z,100.00
2023-04-26T23:26:08.457Z,100.00
2023-04-26T23:30:13.872Z,100.00
2023-04-26T23:34:16.723Z,100.00
2023-04-26T23:38:19.726Z,100.00
2023-04-26T23:42:24.053Z,100.00
2023-04-26T23:46:27.041Z,100.00
2023-04-26T23:50:29.967Z,100.00
2023-04-26T23:54:32.891Z,100.00
2023-04-26T23:58:37.224Z,100.00
